createdAt,value
2023-04-03T00:00:23.143Z,10.10
2023-04-03T00:02:50.677Z,10.00
2023-04-03T00:05:17.619Z,10.00
2023-04-03T00:07:44.485Z,10.00
2023-04-03T00:10:11.736Z,9.90
2023-04-03T00:12:38.755Z,9.90
2023-04-03T00:15:06.285Z,9.90
2023-04-03T00:17:33.152Z,9.80
2023-04-03T00:20:00.396Z,9.80
2023-04-03T00:22:29.656Z,9.70
2023-04-03T00:24:56.741Z,9.70
2023-04-03T00:27:23.757Z,9.70
2023-04-03T00:29:50.567Z,9.60
2023-04-03T00:32:17.500Z,9.60
2023-04-03T00:34:44.620Z,9.60
2023-04-03T00:37:11.838Z,9.50
2023-04-03T00:39:38.662Z,9.50
2023-04-03T00:42:05.551Z,9.50
2023-04-03T00:44:35.498Z,9.40
2023-04-03T00:47:04.651Z,9.40
2023-04-03T00:49:31.556Z,9.40
2023-04-03T00:51:59.441Z,9.40
2023-04-03T00:54:27.587Z,9.30
2023-04-03T00:56:57.451Z,9.40
2023-04-03T00:59:31.270Z,9.30
2023-04-03T01:01:58.740Z,9.30
2023-04-03T01:04:30.110Z,9.30
2023-04-03T01:07:02.159Z,9.30
2023-04-03T01:09:30.700Z,9.30
2023-04-03T01:12:21.878Z,9.20
2023-04-03T01:14:55.295Z,9.20
2023-04-03T01:17:40.770Z,9.20
2023-04-03T01:20:33.243Z,9.10
2023-04-03T01:23:12.975Z,9.00
2023-04-03T01:25:46.545Z,9.00
2023-04-03T01:28:17.104Z,9.00
2023-04-03T01:30:50.134Z,9.00
2023-04-03T01:33:17.799Z,9.00
2023-04-03T01:35:46.508Z,8.90
2023-04-03T01:38:13.641Z,8.90
2023-04-03T01:40:40.650Z,8.90
2023-04-03T01:43:07.584Z,8.80
2023-04-03T01:45:34.724Z,8.80
2023-04-03T01:48:02.189Z,8.80
2023-04-03T01:50:29.372Z,8.80
2023-04-03T01:52:56.290Z,8.80
2023-04-03T01:55:23.096Z,8.70
2023-04-03T01:57:50.021Z,8.70
2023-04-03T02:00:17.573Z,8.70
2023-04-03T02:02:45.091Z,8.70
2023-04-03T02:05:12.142Z,8.60
2023-04-03T02:07:39.255Z,8.60
2023-04-03T02:10:06.716Z,8.60
2023-04-03T02:12:33.913Z,8.60
2023-04-03T02:15:01.901Z,8.50
2023-04-03T02:17:28.977Z,8.40
2023-04-03T02:19:55.997Z,8.40
2023-04-03T02:22:24.378Z,8.40
2023-04-03T02:24:52.852Z,8.40
2023-04-03T02:27:21.422Z,8.30
2023-04-03T02:29:49.247Z,8.30
2023-04-03T02:32:16.296Z,8.30
2023-04-03T02:34:43.927Z,8.30
2023-04-03T02:37:13.082Z,8.30
2023-04-03T02:39:41.076Z,8.30
2023-04-03T02:42:08.518Z,8.20
2023-04-03T02:44:36.670Z,8.20
2023-04-03T02:47:03.904Z,8.20
2023-04-03T02:49:30.784Z,8.20
2023-04-03T02:51:57.890Z,8.20
2023-04-03T02:54:28.785Z,8.20
2023-04-03T02:56:59.007Z,8.20
2023-04-03T02:59:26.087Z,8.10
2023-04-03T03:01:53.432Z,8.20
2023-04-03T03:04:20.761Z,8.10
2023-04-03T03:06:47.924Z,8.10
2023-04-03T03:09:15.689Z,8.10
2023-04-03T03:11:43.202Z,8.10
2023-04-03T03:14:10.269Z,8.10
2023-04-03T03:16:37.182Z,8.10
2023-04-03T03:19:04.235Z,8.00
2023-04-03T03:21:31.465Z,8.00
2023-04-03T03:23:58.386Z,8.00
2023-04-03T03:26:26.013Z,8.00
2023-04-03T03:28:53.004Z,8.00
2023-04-03T03:31:19.898Z,8.00
2023-04-03T03:33:46.819Z,7.90
2023-04-03T03:36:13.699Z,8.00
2023-04-03T03:38:40.965Z,7.90
2023-04-03T03:41:09.312Z,7.90
2023-04-03T03:43:36.318Z,7.90
2023-04-03T03:46:05.109Z,7.90
2023-04-03T03:48:32.223Z,7.90
2023-04-03T03:50:59.123Z,7.80
2023-04-03T03:53:30.531Z,7.80
2023-04-03T03:56:02.130Z,7.80
2023-04-03T03:58:31.428Z,7.80
2023-04-03T04:01:02.306Z,7.80
2023-04-03T04:03:29.612Z,7.70
2023-04-03T04:05:56.976Z,7.70
2023-04-03T04:08:24.772Z,7.70
2023-04-03T04:10:51.690Z,7.70
2023-04-03T04:13:19.254Z,7.70
2023-04-03T04:15:46.634Z,7.70
2023-04-03T04:18:15.921Z,7.70
2023-04-03T04:20:48.483Z,7.70
2023-04-03T04:23:19.161Z,7.70
2023-04-03T04:25:48.924Z,7.70
2023-04-03T04:28:16.885Z,7.70
2023-04-03T04:30:44.963Z,7.70
2023-04-03T04:33:12.871Z,7.70
2023-04-03T04:35:40.118Z,7.60
2023-04-03T04:38:09.687Z,7.60
2023-04-03T04:40:38.736Z,7.60
2023-04-03T04:43:06.057Z,7.60
2023-04-03T04:45:33.179Z,7.60
2023-04-03T04:48:00.197Z,7.60
2023-04-03T04:50:27.250Z,7.70
2023-04-03T04:52:55.803Z,7.60
2023-04-03T04:55:22.772Z,7.70
2023-04-03T04:57:50.849Z,7.60
2023-04-03T05:00:18.618Z,7.70
2023-04-03T05:02:45.618Z,7.60
2023-04-03T05:05:12.659Z,7.60
2023-04-03T05:07:39.817Z,7.60
2023-04-03T05:10:07.570Z,7.60
2023-04-03T05:12:35.668Z,7.70
2023-04-03T05:15:04.779Z,7.60
2023-04-03T05:17:32.743Z,7.60
2023-04-03T05:20:00.333Z,7.70
2023-04-03T05:22:28.784Z,7.70
2023-04-03T05:25:00.357Z,7.70
2023-04-03T05:27:29.390Z,7.70
2023-04-03T05:29:58.756Z,7.70
2023-04-03T05:32:28.773Z,7.70
2023-04-03T05:35:37.922Z,7.70
2023-04-03T05:38:05.896Z,7.70
2023-04-03T05:40:33.778Z,7.70
2023-04-03T05:43:00.770Z,7.70
2023-04-03T05:45:31.601Z,7.80
2023-04-03T05:47:59.499Z,7.80
2023-04-03T05:50:29.522Z,7.80
2023-04-03T05:52:59.731Z,7.80
2023-04-03T05:55:28.818Z,7.80
2023-04-03T05:57:55.845Z,7.80
2023-04-03T06:00:23.730Z,7.90
2023-04-03T06:03:00.111Z,7.90
2023-04-03T06:05:27.245Z,7.90
2023-04-03T06:07:54.573Z,7.90
2023-04-03T06:10:21.571Z,8.00
2023-04-03T06:12:48.717Z,8.00
2023-04-03T06:15:15.744Z,8.00
2023-04-03T06:17:43.150Z,8.00
2023-04-03T06:20:11.148Z,8.10
2023-04-03T06:22:39.032Z,8.10
2023-04-03T06:25:07.954Z,8.10
2023-04-03T06:27:35.779Z,8.10
2023-04-03T06:30:02.814Z,8.10
2023-04-03T06:32:29.770Z,8.20
2023-04-03T06:34:58.169Z,8.20
2023-04-03T06:37:27.153Z,8.20
2023-04-03T06:39:54.055Z,8.20
2023-04-03T06:42:21.438Z,8.30
2023-04-03T06:44:55.863Z,8.30
2023-04-03T06:47:22.698Z,8.30
2023-04-03T06:49:49.568Z,8.30
2023-04-03T06:52:16.582Z,8.40
2023-04-03T06:54:43.501Z,8.40
2023-04-03T06:57:10.643Z,8.40
2023-04-03T06:59:38.100Z,8.50
2023-04-03T07:02:05.574Z,8.50
2023-04-03T07:04:32.637Z,8.50
2023-04-03T07:06:59.636Z,8.60
2023-04-03T07:09:27.109Z,8.60
2023-04-03T07:11:54.043Z,8.70
2023-04-03T07:14:22.138Z,8.70
2023-04-03T07:16:49.079Z,8.80
2023-04-03T07:19:16.188Z,8.80
2023-04-03T07:21:44.393Z,8.90
2023-04-03T07:24:15.111Z,9.00
2023-04-03T07:26:43.947Z,9.00
2023-04-03T07:29:10.822Z,9.10
2023-04-03T07:31:39.711Z,9.20
2023-04-03T07:34:06.757Z,9.30
2023-04-03T07:36:34.502Z,9.40
2023-04-03T07:39:02.101Z,9.50
2023-04-03T07:41:29.615Z,9.60
2023-04-03T07:43:57.701Z,9.60
2023-04-03T07:46:25.075Z,9.70
2023-04-03T07:48:52.001Z,9.80
2023-04-03T07:51:18.953Z,9.80
2023-04-03T07:53:46.093Z,9.90
2023-04-03T07:56:13.173Z,9.90
2023-04-03T07:58:40.051Z,10.00
2023-04-03T08:01:07.243Z,10.00
2023-04-03T08:03:34.612Z,10.10
2023-04-03T08:06:07.402Z,10.20
2023-04-03T08:08:36.488Z,10.30
2023-04-03T08:11:04.224Z,10.40
2023-04-03T08:13:31.783Z,10.50
2023-04-03T08:16:00.143Z,10.50
2023-04-03T08:18:27.796Z,10.60
2023-04-03T08:20:54.767Z,10.60
2023-04-03T08:23:22.025Z,10.70
2023-04-03T08:25:48.934Z,10.70
2023-04-03T08:28:16.154Z,10.90
2023-04-03T08:30:43.814Z,11.00
2023-04-03T08:33:11.785Z,11.10
2023-04-03T08:35:42.889Z,11.20
2023-04-03T08:38:11.655Z,11.30
2023-04-03T08:40:39.473Z,11.40
2023-04-03T08:43:44.410Z,11.50
2023-04-03T08:46:16.418Z,11.60
2023-04-03T08:48:44.808Z,11.80
2023-04-03T08:51:21.162Z,11.90
2023-04-03T08:53:57.624Z,12.00
2023-04-03T08:56:25.669Z,12.10
2023-04-03T08:59:02.911Z,12.20
2023-04-03T09:01:39.166Z,12.20
2023-04-03T09:04:15.274Z,12.10
2023-04-03T09:06:47.306Z,12.10
2023-04-03T09:09:33.417Z,12.00
2023-04-03T09:12:18.862Z,12.00
2023-04-03T09:15:05.247Z,11.90
2023-04-03T09:17:57.168Z,11.90
2023-04-03T09:21:03.750Z,11.90
2023-04-03T09:23:31.273Z,11.90
2023-04-03T09:26:06.190Z,11.90
2023-04-03T09:28:49.331Z,11.80
2023-04-03T09:31:23.782Z,11.80
2023-04-03T09:33:55.348Z,11.80
2023-04-03T09:36:45.443Z,11.80
2023-04-03T09:39:19.196Z,11.80
2023-04-03T09:42:16.420Z,11.80
2023-04-03T09:44:44.569Z,11.80
2023-04-03T09:47:24.415Z,11.80
2023-04-03T09:49:51.795Z,11.80
2023-04-03T09:52:25.629Z,11.90
2023-04-03T09:54:52.914Z,12.00
2023-04-03T09:57:20.232Z,12.10
2023-04-03T10:00:01.492Z,12.20
2023-04-03T10:02:43.386Z,12.20
2023-04-03T10:05:33.681Z,12.30
2023-04-03T10:08:24.960Z,12.30
2023-04-03T10:11:12.650Z,12.20
2023-04-03T10:14:02.229Z,12.20
2023-04-03T10:16:53.803Z,12.20
2023-04-03T10:19:48.191Z,12.30
2023-04-03T10:22:22.803Z,12.30
2023-04-03T10:25:17.399Z,12.30
2023-04-03T10:28:01.274Z,12.40
2023-04-03T10:30:46.380Z,12.40
2023-04-03T10:33:20.919Z,12.50
2023-04-03T10:36:10.394Z,12.60
2023-04-03T10:39:15.463Z,12.60
2023-04-03T10:42:09.332Z,12.60
2023-04-03T10:45:06.823Z,12.60
2023-04-03T10:48:08.360Z,12.50
2023-04-03T10:50:45.975Z,12.50
2023-04-03T10:53:51.303Z,12.40
2023-04-03T10:56:36.714Z,12.40
2023-04-03T10:59:14.120Z,12.40
2023-04-03T11:01:43.635Z,12.40
2023-04-03T11:04:12.024Z,12.40
2023-04-03T11:06:52.011Z,12.40
2023-04-03T11:09:34.356Z,12.40
2023-04-03T11:12:12.789Z,12.40
2023-04-03T11:14:41.916Z,12.40
2023-04-03T11:17:18.982Z,12.40
2023-04-03T11:19:48.803Z,12.40
2023-04-03T11:22:27.914Z,12.40
2023-04-03T11:25:08.297Z,12.40
2023-04-03T11:27:47.596Z,12.40
2023-04-03T11:30:24.678Z,12.50
2023-04-03T11:33:05.146Z,12.50
2023-04-03T11:35:33.417Z,12.50
2023-04-03T11:38:02.788Z,12.50
2023-04-03T11:40:34.065Z,12.50
2023-04-03T11:43:01.080Z,12.50
2023-04-03T11:45:39.199Z,12.40
2023-04-03T11:48:29.261Z,12.40
2023-04-03T11:50:59.479Z,12.40
2023-04-03T11:53:31.424Z,12.30
2023-04-03T11:56:01.306Z,12.30
2023-04-03T11:58:34.764Z,12.30
2023-04-03T12:01:05.414Z,12.30
2023-04-03T12:03:41.496Z,12.30
2023-04-03T12:06:08.396Z,12.20
2023-04-03T12:08:35.357Z,12.20
2023-04-03T12:11:14.382Z,12.20
2023-04-03T12:13:51.167Z,12.20
2023-04-03T12:16:40.471Z,12.20
2023-04-03T12:19:16.942Z,12.20
2023-04-03T12:21:47.346Z,12.20
2023-04-03T12:24:17.333Z,12.10
2023-04-03T12:27:08.839Z,12.10
2023-04-03T12:29:44.056Z,12.20
2023-04-03T12:32:31.025Z,12.10
2023-04-03T12:35:07.477Z,12.10
2023-04-03T12:38:11.910Z,12.10
2023-04-03T12:41:13.661Z,12.20
2023-04-03T12:44:00.650Z,12.20
2023-04-03T12:46:36.811Z,12.20
2023-04-03T12:49:13.740Z,12.20
2023-04-03T12:51:47.375Z,12.20
2023-04-03T12:54:24.963Z,12.20
2023-04-03T12:56:51.931Z,12.20
2023-04-03T12:59:24.824Z,12.20
2023-04-03T13:01:57.441Z,12.20
2023-04-03T13:04:25.443Z,12.20
2023-04-03T13:06:52.472Z,12.20
2023-04-03T13:09:22.996Z,12.30
2023-04-03T13:11:52.953Z,12.30
2023-04-03T13:14:24.492Z,12.30
2023-04-03T13:17:05.366Z,12.30
2023-04-03T13:19:32.410Z,12.30
2023-04-03T13:22:05.793Z,12.30
2023-04-03T13:24:37.692Z,12.30
2023-04-03T13:27:06.499Z,12.30
2023-04-03T13:29:37.096Z,12.30
2023-04-03T13:32:06.912Z,12.30
2023-04-03T13:34:41.382Z,12.30
2023-04-03T13:37:19.880Z,12.30
2023-04-03T13:39:57.094Z,12.30
2023-04-03T13:42:27.780Z,12.30
2023-04-03T13:45:29.252Z,12.30
2023-04-03T13:48:23.423Z,12.30
2023-04-03T13:50:55.169Z,12.30
2023-04-03T13:53:22.002Z,12.30
2023-04-03T13:56:18.261Z,12.30
2023-04-03T13:59:21.417Z,12.30
2023-04-03T14:01:51.518Z,12.30
2023-04-03T14:04:28.900Z,12.30
2023-04-03T14:06:56.026Z,12.30
2023-04-03T14:09:25.724Z,12.30
2023-04-03T14:11:56.016Z,12.30
2023-04-03T14:14:27.441Z,12.30
2023-04-03T14:16:57.632Z,12.30
2023-04-03T14:19:28.190Z,12.30
2023-04-03T14:21:57.007Z,12.30
2023-04-03T14:24:25.019Z,12.30
2023-04-03T14:26:53.907Z,12.30
2023-04-03T14:29:22.505Z,12.40
2023-04-03T14:31:55.431Z,12.40
2023-04-03T14:34:27.680Z,12.40
2023-04-03T14:36:54.848Z,12.40
2023-04-03T14:39:21.715Z,12.40
2023-04-03T14:41:48.785Z,12.40
2023-04-03T14:44:15.963Z,12.40
2023-04-03T14:46:56.434Z,12.50
2023-04-03T14:49:30.229Z,12.50
2023-04-03T14:52:00.381Z,12.50
2023-04-03T14:54:29.071Z,12.50
2023-04-03T14:56:57.836Z,12.50
2023-04-03T14:59:24.815Z,12.50
2023-04-03T15:01:51.789Z,12.50
2023-04-03T15:04:21.921Z,12.50
2023-04-03T15:06:50.378Z,12.50
2023-04-03T15:09:28.508Z,12.50
2023-04-03T15:11:56.013Z,12.50
2023-04-03T15:14:35.774Z,12.50
2023-04-03T15:17:07.906Z,12.50
2023-04-03T15:19:38.949Z,12.50
2023-04-03T15:22:05.952Z,12.50
2023-04-03T15:24:33.267Z,12.50
2023-04-03T15:27:01.929Z,12.50
2023-04-03T15:29:28.863Z,12.50
2023-04-03T15:31:55.925Z,12.50
2023-04-03T15:34:23.256Z,12.50
2023-04-03T15:36:53.793Z,12.60
2023-04-03T15:39:21.907Z,12.60
2023-04-03T15:41:49.108Z,12.60
2023-04-03T15:44:18.554Z,12.60
2023-04-03T15:46:50.826Z,12.70
2023-04-03T15:49:18.599Z,12.60
2023-04-03T15:51:45.642Z,12.60
2023-04-03T15:54:12.602Z,12.60
2023-04-03T15:56:39.470Z,12.60
2023-04-03T15:59:06.387Z,12.60
2023-04-03T16:01:37.448Z,12.60
2023-04-03T16:04:06.333Z,12.60
2023-04-03T16:06:34.826Z,12.60
2023-04-03T16:09:01.935Z,12.60
2023-04-03T16:11:29.528Z,12.60
2023-04-03T16:13:56.517Z,12.60
2023-04-03T16:16:25.612Z,12.60
2023-04-03T16:18:52.804Z,12.60
2023-04-03T16:21:19.659Z,12.60
2023-04-03T16:23:47.324Z,12.60
2023-04-03T16:26:14.319Z,12.60
2023-04-03T16:28:41.412Z,12.60
2023-04-03T16:31:08.860Z,12.60
2023-04-03T16:33:36.067Z,12.60
2023-04-03T16:36:04.187Z,12.60
2023-04-03T16:38:31.043Z,12.60
2023-04-03T16:41:00.381Z,12.60
2023-04-03T16:43:28.048Z,12.60
2023-04-03T16:45:54.951Z,12.60
2023-04-03T16:48:21.904Z,12.60
2023-04-03T16:50:50.026Z,12.60
2023-04-03T16:53:17.112Z,12.60
2023-04-03T16:55:43.904Z,12.50
2023-04-03T16:58:11.165Z,12.50
2023-04-03T17:00:38.221Z,12.50
2023-04-03T17:03:05.364Z,12.50
2023-04-03T17:05:32.205Z,12.50
2023-04-03T17:08:00.280Z,12.50
2023-04-03T17:10:28.049Z,12.50
2023-04-03T17:12:54.923Z,12.50
2023-04-03T17:15:22.094Z,12.40
2023-04-03T17:17:50.451Z,12.40
2023-04-03T17:20:17.488Z,12.40
2023-04-03T17:22:45.438Z,12.40
2023-04-03T17:25:13.183Z,12.30
2023-04-03T17:27:40.623Z,12.30
2023-04-03T17:30:08.118Z,12.30
2023-04-03T17:32:34.981Z,12.30
2023-04-03T17:35:01.792Z,12.30
2023-04-03T17:37:28.602Z,12.20
2023-04-03T17:39:55.773Z,12.20
2023-04-03T17:42:22.610Z,12.20
2023-04-03T17:44:49.401Z,12.20
2023-04-03T17:47:16.390Z,12.20
2023-04-03T17:49:44.428Z,12.20
2023-04-03T17:52:11.547Z,12.10
2023-04-03T17:54:38.570Z,12.10
2023-04-03T17:57:05.907Z,12.10
2023-04-03T17:59:32.939Z,12.00
2023-04-03T18:02:00.000Z,12.00
2023-04-03T18:04:29.065Z,12.00
2023-04-03T18:06:56.230Z,11.90
2023-04-03T18:09:28.827Z,11.90
2023-04-03T18:11:57.347Z,11.90
2023-04-03T18:14:27.140Z,11.80
2023-04-03T18:16:57.392Z,11.80
2023-04-03T18:19:25.004Z,11.80
2023-04-03T18:21:55.829Z,11.70
2023-04-03T18:24:23.768Z,11.60
2023-04-03T18:26:55.600Z,11.60
2023-04-03T18:29:22.856Z,11.60
2023-04-03T18:31:52.431Z,11.50
2023-04-03T18:34:19.265Z,11.50
2023-04-03T18:36:46.600Z,11.50
2023-04-03T18:39:13.968Z,11.40
2023-04-03T18:41:41.545Z,11.40
2023-04-03T18:44:12.081Z,11.40
2023-04-03T18:46:39.509Z,11.40
2023-04-03T18:49:07.981Z,11.40
2023-04-03T18:51:34.967Z,11.30
2023-04-03T18:54:02.722Z,11.30
2023-04-03T18:56:30.869Z,11.20
2023-04-03T18:58:57.859Z,11.20
2023-04-03T19:01:24.746Z,11.20
2023-04-03T19:03:51.866Z,11.20
2023-04-03T19:06:18.910Z,11.10
2023-04-03T19:08:46.201Z,11.00
2023-04-03T19:11:12.997Z,11.00
2023-04-03T19:13:46.998Z,11.00
2023-04-03T19:16:27.057Z,11.00
2023-04-03T19:18:54.035Z,11.00
2023-04-03T19:21:21.209Z,10.90
2023-04-03T19:23:48.757Z,10.90
2023-04-03T19:26:15.830Z,10.90
2023-04-03T19:28:43.999Z,10.80
2023-04-03T19:31:16.494Z,10.80
2023-04-03T19:33:44.183Z,10.80
2023-04-03T19:36:12.205Z,10.80
2023-04-03T19:38:39.473Z,10.80
2023-04-03T19:41:33.088Z,10.80
2023-04-03T19:44:00.474Z,10.70
2023-04-03T19:46:29.083Z,10.70
2023-04-03T19:48:56.437Z,10.70
2023-04-03T19:51:23.681Z,10.70
2023-04-03T19:53:50.958Z,10.70
2023-04-03T19:56:17.995Z,10.70
2023-04-03T19:58:45.769Z,10.70
2023-04-03T20:01:12.966Z,10.60
2023-04-03T20:03:40.304Z,10.60
2023-04-03T20:06:07.121Z,10.60
2023-04-03T20:08:34.601Z,10.60
2023-04-03T20:11:01.656Z,10.60
2023-04-03T20:13:28.567Z,10.60
2023-04-03T20:15:56.076Z,10.50
2023-04-03T20:18:23.289Z,10.50
2023-04-03T20:21:01.914Z,10.40
2023-04-03T20:23:30.452Z,10.40
2023-04-03T20:26:09.323Z,10.40
2023-04-03T20:28:38.315Z,10.40
2023-04-03T20:31:06.628Z,10.30
2023-04-03T20:33:33.992Z,10.30
2023-04-03T20:36:02.026Z,10.30
2023-04-03T20:38:28.917Z,10.30
2023-04-03T20:40:55.978Z,10.30
2023-04-03T20:43:23.695Z,10.20
2023-04-03T20:45:51.002Z,10.20
2023-04-03T20:48:18.721Z,10.20
2023-04-03T20:50:46.497Z,10.10
2023-04-03T20:53:15.055Z,10.10
2023-04-03T20:55:42.412Z,10.10
2023-04-03T20:58:09.668Z,10.00
2023-04-03T21:00:38.013Z,10.00
2023-04-03T21:03:05.976Z,10.00
2023-04-03T21:05:34.794Z,10.00
2023-04-03T21:08:40.219Z,9.90
2023-04-03T21:11:44.761Z,9.90
2023-04-03T21:14:49.231Z,9.80
2023-04-03T21:17:16.616Z,9.80
2023-04-03T21:19:46.499Z,9.80
2023-04-03T21:22:16.104Z,9.70
2023-04-03T21:24:44.258Z,9.70
2023-04-03T21:27:11.588Z,9.70
2023-04-03T21:29:38.975Z,9.70
2023-04-03T21:32:06.324Z,9.60
2023-04-03T21:34:33.306Z,9.50
2023-04-03T21:37:05.554Z,9.50
2023-04-03T21:39:33.161Z,9.50
2023-04-03T21:42:00.668Z,9.50
2023-04-03T21:44:28.482Z,9.40
2023-04-03T21:46:55.928Z,9.40
2023-04-03T21:49:24.183Z,9.40
2023-04-03T21:51:52.464Z,9.40
2023-04-03T21:54:20.345Z,9.30
2023-04-03T21:56:52.335Z,9.30
2023-04-03T21:59:19.364Z,9.30
2023-04-03T22:01:46.331Z,9.30
2023-04-03T22:04:13.318Z,9.20
2023-04-03T22:06:41.128Z,9.20
2023-04-03T22:09:08.160Z,9.20
2023-04-03T22:11:35.016Z,9.20
2023-04-03T22:14:01.983Z,9.20
2023-04-03T22:16:28.787Z,9.10
2023-04-03T22:18:59.141Z,9.20
2023-04-03T22:21:26.827Z,9.10
2023-04-03T22:23:54.547Z,9.20
2023-04-03T22:26:22.005Z,9.20
2023-04-03T22:28:48.930Z,9.20
2023-04-03T22:31:16.581Z,9.10
2023-04-03T22:33:44.831Z,9.10
2023-04-03T22:36:13.153Z,9.10
2023-04-03T22:38:43.465Z,9.10
2023-04-03T22:41:10.690Z,9.10
2023-04-03T22:43:38.321Z,9.10
2023-04-03T22:46:08.737Z,9.10
2023-04-03T22:48:37.288Z,9.10
2023-04-03T22:51:07.494Z,9.00
2023-04-03T22:53:35.497Z,9.00
2023-04-03T22:56:04.932Z,9.00
2023-04-03T22:58:31.839Z,8.90
2023-04-03T23:01:07.570Z,8.90
2023-04-03T23:03:35.804Z,8.90
2023-04-03T23:06:04.099Z,8.80
2023-04-03T23:08:32.493Z,8.80
2023-04-03T23:11:00.209Z,8.80
2023-04-03T23:13:27.926Z,8.80
2023-04-03T23:15:59.406Z,8.70
2023-04-03T23:18:31.691Z,8.70
2023-04-03T23:21:03.738Z,8.70
2023-04-03T23:23:31.894Z,8.70
2023-04-03T23:26:00.451Z,8.60
2023-04-03T23:28:28.454Z,8.60
2023-04-03T23:31:00.416Z,8.50
2023-04-03T23:33:28.054Z,8.50
2023-04-03T23:35:54.961Z,8.50
2023-04-03T23:38:22.059Z,8.40
2023-04-03T23:40:48.950Z,8.40
2023-04-03T23:43:16.222Z,8.40
2023-04-03T23:45:44.907Z,8.30
2023-04-03T23:48:11.938Z,8.30
2023-04-03T23:50:39.064Z,8.30
2023-04-03T23:53:06.058Z,8.20
2023-04-03T23:55:33.131Z,8.20
2023-04-03T23:57:59.994Z,8.20
